| time (UTC) | temp C | wind direction | speed KPH | gust KPH | rain 1hr cm | rain 24hr cm | rain mn cm | humidity % | barometer mb |
| 20260505064551 | 15 | 236 | 0.0 | 6.4 | 0.00 | 0.00 | 0.00 | 68 | 1010.2 |
| 20260505063050 | 16 | 5 | 0.0 | 0.0 | 0.00 | 0.00 | 0.00 | 67 | 1010.3 |
| 20260505061553 | 16 | 167 | 0.0 | 1.6 | 0.00 | 0.00 | 0.00 | 66 | 1010.3 |
| 20260505060047 | 16 | 264 | 0.0 | 3.2 | 0.00 | 0.00 | 0.00 | 66 | 1010.2 |
| 20260505054607 | 16 | 217 | 0.0 | 4.8 | 0.00 | 0.00 | 0.00 | 65 | 1010.4 |
| 20260505053059 | 16 | 112 | 0.0 | 1.6 | 0.00 | 0.00 | 0.00 | 65 | 1010.5 |
| 20260505051544 | 16 | 252 | 0.0 | 3.2 | 0.00 | 0.00 | 0.00 | 65 | 1010.5 |
| 20260505041539 | 16 | 123 | 0.0 | 4.8 | 0.00 | 0.00 | 0.00 | 63 | 1010.3 |
| 20260505040037 | 16 | 93 | 0.0 | 4.8 | 0.00 | 0.00 | 0.00 | 63 | 1010.5 |
| 20260505034537 | 16 | 249 | 0.0 | 3.2 | 0.00 | 0.00 | 0.00 | 63 | 1010.5 |
| 20260505033036 | 16 | 113 | 0.0 | 4.8 | 0.00 | 0.00 | 0.00 | 62 | 1010.4 |
| 20260505031546 | 16 | 82 | 0.0 | 4.8 | 0.00 | 0.00 | 0.00 | 62 | 1010.3 |
| 20260505030035 | 16 | 70 | 0.0 | 1.6 | 0.00 | 0.00 | 0.00 | 59 | 1010.5 |
| 20260505024539 | 16 | 98 | 0.0 | 1.6 | 0.00 | 0.00 | 0.00 | 57 | 1010.7 |
| 20260505023034 | 16 | 66 | 0.0 | 4.8 | 0.00 | 0.00 | 0.00 | 55 | 1010.7 |
| 20260505021534 | 17 | 105 | 0.0 | 6.4 | 0.00 | 0.00 | 0.00 | 52 | 1010.6 |
| 20260505020034 | 17 | 53 | 0.0 | 3.2 | 0.00 | 0.00 | 0.00 | 51 | 1010.6 |
| 20260505014536 | 17 | 102 | 0.0 | 3.2 | 0.00 | 0.00 | 0.00 | 49 | 1010.6 |
| 20260505013032 | 18 | 110 | 0.0 | 1.6 | 0.00 | 0.00 | 0.00 | 48 | 1010.6 |
| 20260505011535 | 18 | 61 | 0.0 | 3.2 | 0.00 | 0.00 | 0.00 | 47 | 1010.4 |
| 20260505010030 | 18 | 108 | 0.0 | 1.6 | 0.00 | 0.00 | 0.00 | 45 | 1010.4 |
| 20260505004543 | 18 | 108 | 0.0 | 3.2 | 0.00 | 0.00 | 0.00 | 44 | 1010.1 |
| 20260505003031 | 19 | 8 | 0.0 | 1.6 | 0.00 | 0.00 | 0.00 | 43 | 1010.0 |
| 20260505001528 | 19 | 115 | 0.0 | 1.6 | 0.00 | 0.00 | 0.00 | 42 | 1009.9 |
| 20260505000039 | 20 | 62 | 0.0 | 4.8 | 0.00 | 0.00 | 0.00 | 41 | 1009.8 |
| 20260504234526 | 20 | 266 | 0.0 | 1.6 | 0.00 | 0.00 | 0.00 | 39 | 1009.7 |
| 20260504233027 | 21 | 91 | 0.0 | 6.4 | 0.00 | 0.00 | 0.00 | 38 | 1009.6 |
| 20260504231525 | 21 | 216 | 1.6 | 9.7 | 0.00 | 0.00 | 0.00 | 37 | 1009.6 |
| 20260504230025 | 21 | 238 | 1.6 | 16.1 | 0.00 | 0.00 | 0.00 | 36 | 1009.5 |
| 20260504224524 | 21 | 239 | 1.6 | 11.3 | 0.00 | 0.00 | 0.00 | 35 | 1009.6 |
| 20260504223024 | 22 | 212 | 1.6 | 8.0 | 0.00 | 0.00 | 0.00 | 35 | 1009.6 |
| 20260504221521 | 22 | 272 | 0.0 | 12.9 | 0.00 | 0.00 | 0.00 | 34 | 1009.6 |
| 20260504220022 | 23 | 281 | 0.0 | 8.0 | 0.00 | 0.00 | 0.00 | 33 | 1009.8 |
| 20260504214521 | 23 | 112 | 4.8 | 14.5 | 0.00 | 0.00 | 0.00 | 32 | 1009.8 |
| 20260504213020 | 23 | 236 | 3.2 | 11.3 | 0.00 | 0.00 | 0.00 | 31 | 1009.8 |
| 20260504211519 | 23 | 241 | 3.2 | 12.9 | 0.00 | 0.00 | 0.00 | 31 | 1009.8 |
| 20260504210022 | 23 | 293 | 1.6 | 17.7 | 0.00 | 0.00 | 0.00 | 34 | 1009.8 |
| 20260504204517 | 23 | 77 | 6.4 | 16.1 | 0.00 | 0.00 | 0.00 | 33 | 1009.9 |
| 20260504203016 | 23 | 70 | 3.2 | 11.3 | 0.00 | 0.00 | 0.00 | 32 | 1009.9 |
| 20260504200013 | 23 | 214 | 1.6 | 11.3 | 0.00 | 0.00 | 0.00 | 33 | 1009.8 |
| 20260504194511 | 23 | 285 | 1.6 | 17.7 | 0.00 | 0.00 | 0.00 | 33 | 1010.2 |
| 20260504193009 | 23 | 284 | 1.6 | 9.7 | 0.00 | 0.00 | 0.00 | 33 | 1010.2 |
| 20260504191507 | 23 | 121 | 0.0 | 8.0 | 0.00 | 0.00 | 0.00 | 34 | 1010.5 |
| 20260504190004 | 23 | 135 | 3.2 | 16.1 | 0.00 | 0.00 | 0.00 | 33 | 1010.7 |
| 20260504184502 | 23 | 82 | 1.6 | 16.1 | 0.00 | 0.00 | 0.00 | 32 | 1011.0 |
| 20260504183106 | 22 | 100 | 3.2 | 16.1 | 0.00 | 0.00 | 0.00 | 32 | 1011.1 |
| 20260504181600 | 22 | 238 | 0.0 | 12.9 | 0.00 | 0.00 | 0.00 | 33 | 1011.4 |
| 20260504174553 | 22 | 208 | 3.2 | 11.3 | 0.00 | 0.00 | 0.00 | 33 | 1011.9 |
| 20260504173050 | 22 | 245 | 1.6 | 14.5 | 0.00 | 0.00 | 0.00 | 33 | 1012.0 |
| 20260504171547 | 21 | 91 | 1.6 | 14.5 | 0.00 | 0.00 | 0.00 | 34 | 1012.3 |
| 20260504081523 | 8 | 276 | 0.0 | 3.2 | 0.00 | 0.00 | 0.00 | 67 | 1014.8 |